sensor_id;sensor_type;location;lat;lon;timestamp;P1;durP1;ratioP1;P2;durP2;ratioP2
35777;SDS011;21899;42.662;23.316;2023-02-12T00:00:32;18.15;;;6.60;;
35777;SDS011;21899;42.662;23.316;2023-02-12T00:02:57;14.73;;;7.20;;
35777;SDS011;21899;42.662;23.316;2023-02-12T00:05:23;15.52;;;7.03;;
35777;SDS011;21899;42.662;23.316;2023-02-12T00:07:49;22.58;;;7.65;;
35777;SDS011;21899;42.662;23.316;2023-02-12T00:10:14;14.98;;;6.95;;
35777;SDS011;21899;42.662;23.316;2023-02-12T00:12:39;14.98;;;6.57;;
35777;SDS011;21899;42.662;23.316;2023-02-12T00:15:05;15.18;;;6.55;;
35777;SDS011;21899;42.662;23.316;2023-02-12T00:17:31;10.85;;;5.85;;
35777;SDS011;21899;42.662;23.316;2023-02-12T00:19:56;13.65;;;7.03;;
35777;SDS011;21899;42.662;23.316;2023-02-12T00:22:21;13.38;;;7.07;;
35777;SDS011;21899;42.662;23.316;2023-02-12T00:24:47;15.93;;;7.07;;
35777;SDS011;21899;42.662;23.316;2023-02-12T00:27:12;12.63;;;6.63;;
35777;SDS011;21899;42.662;23.316;2023-02-12T00:29:37;12.82;;;6.22;;
35777;SDS011;21899;42.662;23.316;2023-02-12T00:32:03;14.07;;;7.10;;
35777;SDS011;21899;42.662;23.316;2023-02-12T00:34:28;13.77;;;6.47;;
35777;SDS011;21899;42.662;23.316;2023-02-12T00:36:54;15.60;;;6.65;;
35777;SDS011;21899;42.662;23.316;2023-02-12T00:39:19;15.68;;;6.70;;
35777;SDS011;21899;42.662;23.316;2023-02-12T00:41:44;13.52;;;6.75;;
35777;SDS011;21899;42.662;23.316;2023-02-12T00:44:10;13.40;;;6.85;;
35777;SDS011;21899;42.662;23.316;2023-02-12T00:46:35;15.35;;;7.10;;
35777;SDS011;21899;42.662;23.316;2023-02-12T00:49:00;14.75;;;7.35;;
35777;SDS011;21899;42.662;23.316;2023-02-12T00:51:26;14.18;;;5.90;;
35777;SDS011;21899;42.662;23.316;2023-02-12T00:53:51;10.10;;;5.47;;
35777;SDS011;21899;42.662;23.316;2023-02-12T00:56:17;11.15;;;5.25;;
35777;SDS011;21899;42.662;23.316;2023-02-12T00:58:42;11.90;;;6.00;;
35777;SDS011;21899;42.662;23.316;2023-02-12T01:01:07;15.45;;;6.80;;
35777;SDS011;21899;42.662;23.316;2023-02-12T01:03:33;12.80;;;5.78;;
35777;SDS011;21899;42.662;23.316;2023-02-12T01:05:58;14.50;;;5.80;;
35777;SDS011;21899;42.662;23.316;2023-02-12T01:08:24;12.93;;;6.35;;
35777;SDS011;21899;42.662;23.316;2023-02-12T01:10:56;12.68;;;6.40;;
35777;SDS011;21899;42.662;23.316;2023-02-12T01:13:25;14.13;;;6.78;;
35777;SDS011;21899;42.662;23.316;2023-02-12T01:16:01;11.80;;;6.03;;
35777;SDS011;21899;42.662;23.316;2023-02-12T01:18:32;12.82;;;6.32;;
35777;SDS011;21899;42.662;23.316;2023-02-12T01:20:59;12.35;;;5.65;;
35777;SDS011;21899;42.662;23.316;2023-02-12T01:23:25;13.75;;;6.95;;
35777;SDS011;21899;42.662;23.316;2023-02-12T01:25:51;15.63;;;7.00;;
35777;SDS011;21899;42.662;23.316;2023-02-12T01:28:17;13.23;;;6.28;;
35777;SDS011;21899;42.662;23.316;2023-02-12T01:30:42;13.55;;;6.60;;
35777;SDS011;21899;42.662;23.316;2023-02-12T01:33:08;14.63;;;6.55;;
35777;SDS011;21899;42.662;23.316;2023-02-12T01:35:33;14.63;;;6.35;;
35777;SDS011;21899;42.662;23.316;2023-02-12T01:38:01;11.77;;;6.38;;
35777;SDS011;21899;42.662;23.316;2023-02-12T01:40:26;13.48;;;6.43;;
35777;SDS011;21899;42.662;23.316;2023-02-12T01:42:52;17.25;;;8.23;;
35777;SDS011;21899;42.662;23.316;2023-02-12T01:45:30;17.45;;;7.32;;
35777;SDS011;21899;42.662;23.316;2023-02-12T01:48:07;14.00;;;6.20;;
35777;SDS011;21899;42.662;23.316;2023-02-12T01:50:33;15.02;;;7.53;;
35777;SDS011;21899;42.662;23.316;2023-02-12T01:52:58;17.85;;;8.15;;
35777;SDS011;21899;42.662;23.316;2023-02-12T01:55:24;15.32;;;7.40;;
35777;SDS011;21899;42.662;23.316;2023-02-12T01:57:49;13.45;;;6.93;;
35777;SDS011;21899;42.662;23.316;2023-02-12T02:00:16;18.25;;;8.15;;
35777;SDS011;21899;42.662;23.316;2023-02-12T02:02:45;14.25;;;7.18;;
35777;SDS011;21899;42.662;23.316;2023-02-12T02:05:17;13.93;;;7.32;;
35777;SDS011;21899;42.662;23.316;2023-02-12T02:07:50;18.63;;;7.75;;
35777;SDS011;21899;42.662;23.316;2023-02-12T02:10:17;15.15;;;7.38;;
35777;SDS011;21899;42.662;23.316;2023-02-12T02:12:42;15.52;;;7.25;;
35777;SDS011;21899;42.662;23.316;2023-02-12T02:15:28;16.52;;;7.05;;
35777;SDS011;21899;42.662;23.316;2023-02-12T02:17:57;17.15;;;6.68;;
35777;SDS011;21899;42.662;23.316;2023-02-12T02:36:57;14.88;;;7.10;;
35777;SDS011;21899;42.662;23.316;2023-02-12T02:42:40;16.45;;;7.88;;
35777;SDS011;21899;42.662;23.316;2023-02-12T02:45:29;16.30;;;7.57;;
35777;SDS011;21899;42.662;23.316;2023-02-12T02:48:04;16.60;;;8.43;;
35777;SDS011;21899;42.662;23.316;2023-02-12T02:50:37;15.80;;;7.60;;
35777;SDS011;21899;42.662;23.316;2023-02-12T02:53:14;17.80;;;7.63;;
35777;SDS011;21899;42.662;23.316;2023-02-12T02:55:46;21.60;;;8.90;;
35777;SDS011;21899;42.662;23.316;2023-02-12T02:58:18;19.33;;;7.97;;
35777;SDS011;21899;42.662;23.316;2023-02-12T03:00:48;14.70;;;7.40;;
35777;SDS011;21899;42.662;23.316;2023-02-12T03:03:25;17.52;;;8.15;;
35777;SDS011;21899;42.662;23.316;2023-02-12T03:08:54;16.98;;;7.63;;
35777;SDS011;21899;42.662;23.316;2023-02-12T03:11:29;15.73;;;7.30;;
35777;SDS011;21899;42.662;23.316;2023-02-12T03:16:49;18.27;;;7.93;;
35777;SDS011;21899;42.662;23.316;2023-02-12T03:19:25;17.52;;;8.85;;
35777;SDS011;21899;42.662;23.316;2023-02-12T03:22:03;22.15;;;8.70;;
35777;SDS011;21899;42.662;23.316;2023-02-12T03:24:35;21.98;;;8.38;;
35777;SDS011;21899;42.662;23.316;2023-02-12T03:27:12;18.20;;;9.02;;
35777;SDS011;21899;42.662;23.316;2023-02-12T03:29:44;22.48;;;9.32;;
35777;SDS011;21899;42.662;23.316;2023-02-12T03:32:22;22.85;;;10.20;;
35777;SDS011;21899;42.662;23.316;2023-02-12T03:38:20;22.85;;;10.32;;
35777;SDS011;21899;42.662;23.316;2023-02-12T03:40:54;21.83;;;9.90;;
35777;SDS011;21899;42.662;23.316;2023-02-12T03:43:37;20.80;;;9.13;;
35777;SDS011;21899;42.662;23.316;2023-02-12T03:49:17;20.75;;;10.02;;
35777;SDS011;21899;42.662;23.316;2023-02-12T03:51:46;23.15;;;9.65;;
35777;SDS011;21899;42.662;23.316;2023-02-12T03:54:12;21.35;;;9.70;;
35777;SDS011;21899;42.662;23.316;2023-02-12T03:59:16;22.77;;;10.50;;
35777;SDS011;21899;42.662;23.316;2023-02-12T04:01:46;20.80;;;10.52;;
35777;SDS011;21899;42.662;23.316;2023-02-12T04:04:13;24.17;;;10.32;;
35777;SDS011;21899;42.662;23.316;2023-02-12T04:06:40;19.92;;;10.68;;
35777;SDS011;21899;42.662;23.316;2023-02-12T04:09:07;21.85;;;11.18;;
35777;SDS011;21899;42.662;23.316;2023-02-12T04:22:42;22.02;;;10.85;;
35777;SDS011;21899;42.662;23.316;2023-02-12T04:30:45;25.58;;;12.07;;
35777;SDS011;21899;42.662;23.316;2023-02-12T04:33:19;28.08;;;12.18;;
35777;SDS011;21899;42.662;23.316;2023-02-12T04:35:50;24.13;;;11.05;;
35777;SDS011;21899;42.662;23.316;2023-02-12T04:38:30;26.00;;;12.27;;
35777;SDS011;21899;42.662;23.316;2023-02-12T04:41:01;22.85;;;11.52;;
35777;SDS011;21899;42.662;23.316;2023-02-12T04:43:31;25.40;;;10.40;;
35777;SDS011;21899;42.662;23.316;2023-02-12T04:46:01;27.95;;;12.40;;
35777;SDS011;21899;42.662;23.316;2023-02-12T04:48:28;25.13;;;11.43;;
35777;SDS011;21899;42.662;23.316;2023-02-12T04:50:54;28.33;;;11.88;;
35777;SDS011;21899;42.662;23.316;2023-02-12T04:53:19;25.27;;;11.25;;
35777;SDS011;21899;42.662;23.316;2023-02-12T04:55:44;27.05;;;12.50;;
35777;SDS011;21899;42.662;23.316;2023-02-12T04:58:11;25.88;;;12.88;;
35777;SDS011;21899;42.662;23.316;2023-02-12T05:00:36;24.83;;;12.43;;
35777;SDS011;21899;42.662;23.316;2023-02-12T05:03:02;25.65;;;12.75;;
35777;SDS011;21899;42.662;23.316;2023-02-12T05:05:27;25.83;;;11.35;;
35777;SDS011;21899;42.662;23.316;2023-02-12T05:07:53;24.30;;;12.38;;
35777;SDS011;21899;42.662;23.316;2023-02-12T05:10:18;29.02;;;13.13;;
35777;SDS011;21899;42.662;23.316;2023-02-12T05:12:43;32.95;;;13.43;;
35777;SDS011;21899;42.662;23.316;2023-02-12T05:15:09;30.70;;;14.18;;
35777;SDS011;21899;42.662;23.316;2023-02-12T05:17:34;23.67;;;12.02;;
35777;SDS011;21899;42.662;23.316;2023-02-12T05:20:00;23.10;;;10.25;;
35777;SDS011;21899;42.662;23.316;2023-02-12T05:22:25;22.98;;;10.45;;
35777;SDS011;21899;42.662;23.316;2023-02-12T05:24:51;19.13;;;9.05;;
35777;SDS011;21899;42.662;23.316;2023-02-12T05:27:16;21.23;;;8.80;;
35777;SDS011;21899;42.662;23.316;2023-02-12T05:29:42;20.25;;;9.70;;
35777;SDS011;21899;42.662;23.316;2023-02-12T05:32:07;20.25;;;8.63;;
35777;SDS011;21899;42.662;23.316;2023-02-12T05:34:33;20.45;;;9.90;;
35777;SDS011;21899;42.662;23.316;2023-02-12T05:36:59;22.92;;;10.73;;
35777;SDS011;21899;42.662;23.316;2023-02-12T05:39:24;17.05;;;7.32;;
35777;SDS011;21899;42.662;23.316;2023-02-12T05:41:50;19.30;;;9.35;;
35777;SDS011;21899;42.662;23.316;2023-02-12T05:44:15;19.40;;;9.73;;
35777;SDS011;21899;42.662;23.316;2023-02-12T05:46:41;22.00;;;8.50;;
35777;SDS011;21899;42.662;23.316;2023-02-12T05:49:07;21.73;;;9.68;;
35777;SDS011;21899;42.662;23.316;2023-02-12T05:51:33;18.17;;;8.73;;
35777;SDS011;21899;42.662;23.316;2023-02-12T05:54:00;19.83;;;9.00;;
35777;SDS011;21899;42.662;23.316;2023-02-12T05:56:31;20.08;;;9.82;;
35777;SDS011;21899;42.662;23.316;2023-02-12T05:59:02;29.08;;;12.32;;
35777;SDS011;21899;42.662;23.316;2023-02-12T06:01:31;21.45;;;9.93;;
35777;SDS011;21899;42.662;23.316;2023-02-12T06:03:59;24.67;;;9.68;;
35777;SDS011;21899;42.662;23.316;2023-02-12T06:06:25;21.65;;;9.90;;
35777;SDS011;21899;42.662;23.316;2023-02-12T06:08:52;20.55;;;10.75;;
35777;SDS011;21899;42.662;23.316;2023-02-12T06:11:18;22.83;;;10.00;;
35777;SDS011;21899;42.662;23.316;2023-02-12T06:13:45;19.95;;;9.05;;
35777;SDS011;21899;42.662;23.316;2023-02-12T06:18:43;23.00;;;8.35;;
35777;SDS011;21899;42.662;23.316;2023-02-12T06:21:09;17.85;;;9.32;;
35777;SDS011;21899;42.662;23.316;2023-02-12T06:23:34;20.15;;;9.02;;
35777;SDS011;21899;42.662;23.316;2023-02-12T06:25:59;18.88;;;9.70;;
35777;SDS011;21899;42.662;23.316;2023-02-12T06:28:25;18.52;;;9.90;;
35777;SDS011;21899;42.662;23.316;2023-02-12T06:30:50;20.85;;;9.45;;
35777;SDS011;21899;42.662;23.316;2023-02-12T06:33:16;17.85;;;9.00;;
35777;SDS011;21899;42.662;23.316;2023-02-12T06:35:41;17.83;;;9.30;;
35777;SDS011;21899;42.662;23.316;2023-02-12T06:38:07;21.98;;;9.25;;
35777;SDS011;21899;42.662;23.316;2023-02-12T06:40:33;21.00;;;9.90;;
35777;SDS011;21899;42.662;23.316;2023-02-12T06:42:58;16.38;;;9.10;;
35777;SDS011;21899;42.662;23.316;2023-02-12T06:45:24;23.27;;;10.27;;
35777;SDS011;21899;42.662;23.316;2023-02-12T06:47:49;20.52;;;9.25;;
35777;SDS011;21899;42.662;23.316;2023-02-12T06:50:15;22.80;;;8.90;;
35777;SDS011;21899;42.662;23.316;2023-02-12T06:52:41;20.58;;;9.13;;
35777;SDS011;21899;42.662;23.316;2023-02-12T06:55:06;18.63;;;8.57;;
35777;SDS011;21899;42.662;23.316;2023-02-12T06:57:32;18.92;;;9.43;;
35777;SDS011;21899;42.662;23.316;2023-02-12T06:59:57;17.63;;;8.68;;
35777;SDS011;21899;42.662;23.316;2023-02-12T07:02:23;18.25;;;9.43;;
35777;SDS011;21899;42.662;23.316;2023-02-12T07:04:48;18.80;;;8.23;;
35777;SDS011;21899;42.662;23.316;2023-02-12T07:07:13;19.00;;;9.55;;
35777;SDS011;21899;42.662;23.316;2023-02-12T07:09:39;21.30;;;9.05;;
35777;SDS011;21899;42.662;23.316;2023-02-12T07:12:04;23.77;;;10.73;;
35777;SDS011;21899;42.662;23.316;2023-02-12T07:14:30;20.23;;;9.60;;
35777;SDS011;21899;42.662;23.316;2023-02-12T07:16:56;19.98;;;9.30;;
35777;SDS011;21899;42.662;23.316;2023-02-12T07:19:22;22.42;;;9.95;;
35777;SDS011;21899;42.662;23.316;2023-02-12T07:21:48;19.73;;;9.48;;
35777;SDS011;21899;42.662;23.316;2023-02-12T07:24:14;21.58;;;9.32;;
35777;SDS011;21899;42.662;23.316;2023-02-12T07:26:42;20.00;;;9.07;;
35777;SDS011;21899;42.662;23.316;2023-02-12T07:29:07;21.50;;;10.35;;
35777;SDS011;21899;42.662;23.316;2023-02-12T07:31:33;23.67;;;11.25;;
35777;SDS011;21899;42.662;23.316;2023-02-12T07:33:59;21.88;;;10.43;;
35777;SDS011;21899;42.662;23.316;2023-02-12T07:36:26;19.48;;;9.13;;
35777;SDS011;21899;42.662;23.316;2023-02-12T07:38:54;17.85;;;9.07;;
35777;SDS011;21899;42.662;23.316;2023-02-12T07:41:21;25.33;;;10.80;;
35777;SDS011;21899;42.662;23.316;2023-02-12T07:43:52;16.02;;;8.40;;
35777;SDS011;21899;42.662;23.316;2023-02-12T07:46:21;25.40;;;10.25;;
35777;SDS011;21899;42.662;23.316;2023-02-12T07:48:50;26.38;;;12.15;;
35777;SDS011;21899;42.662;23.316;2023-02-12T07:51:16;22.08;;;10.80;;
35777;SDS011;21899;42.662;23.316;2023-02-12T07:53:46;25.55;;;10.10;;
35777;SDS011;21899;42.662;23.316;2023-02-12T07:56:19;23.40;;;10.63;;
35777;SDS011;21899;42.662;23.316;2023-02-12T07:58:47;29.48;;;12.63;;
35777;SDS011;21899;42.662;23.316;2023-02-12T08:01:19;23.23;;;10.25;;
35777;SDS011;21899;42.662;23.316;2023-02-12T08:03:46;25.20;;;12.75;;
35777;SDS011;21899;42.662;23.316;2023-02-12T08:06:22;28.60;;;13.75;;
35777;SDS011;21899;42.662;23.316;2023-02-12T08:08:50;29.27;;;14.38;;
35777;SDS011;21899;42.662;23.316;2023-02-12T08:11:17;30.35;;;14.65;;
35777;SDS011;21899;42.662;23.316;2023-02-12T08:13:43;29.83;;;15.02;;
35777;SDS011;21899;42.662;23.316;2023-02-12T08:16:10;29.20;;;14.45;;
35777;SDS011;21899;42.662;23.316;2023-02-12T08:18:37;28.58;;;12.90;;
35777;SDS011;21899;42.662;23.316;2023-02-12T08:21:04;30.65;;;13.88;;
35777;SDS011;21899;42.662;23.316;2023-02-12T08:23:33;28.40;;;13.60;;
35777;SDS011;21899;42.662;23.316;2023-02-12T08:26:12;32.15;;;14.60;;
35777;SDS011;21899;42.662;23.316;2023-02-12T08:28:41;35.58;;;15.60;;
35777;SDS011;21899;42.662;23.316;2023-02-12T08:31:12;30.35;;;14.60;;
35777;SDS011;21899;42.662;23.316;2023-02-12T08:33:40;28.40;;;14.43;;
35777;SDS011;21899;42.662;23.316;2023-02-12T08:36:10;30.70;;;13.90;;
35777;SDS011;21899;42.662;23.316;2023-02-12T08:38:37;25.85;;;13.05;;
35777;SDS011;21899;42.662;23.316;2023-02-12T08:41:04;24.65;;;12.55;;
35777;SDS011;21899;42.662;23.316;2023-02-12T08:43:31;25.58;;;13.30;;
35777;SDS011;21899;42.662;23.316;2023-02-12T08:46:03;25.85;;;13.00;;
35777;SDS011;21899;42.662;23.316;2023-02-12T08:48:30;28.10;;;13.45;;
35777;SDS011;21899;42.662;23.316;2023-02-12T08:51:02;24.83;;;13.10;;
35777;SDS011;21899;42.662;23.316;2023-02-12T08:53:37;24.35;;;13.32;;
35777;SDS011;21899;42.662;23.316;2023-02-12T08:56:04;22.92;;;12.00;;
35777;SDS011;21899;42.662;23.316;2023-02-12T08:58:30;25.55;;;13.10;;
35777;SDS011;21899;42.662;23.316;2023-02-12T09:00:56;28.33;;;13.75;;
35777;SDS011;21899;42.662;23.316;2023-02-12T09:03:22;26.58;;;13.60;;
35777;SDS011;21899;42.662;23.316;2023-02-12T09:05:47;24.92;;;12.88;;
35777;SDS011;21899;42.662;23.316;2023-02-12T09:08:13;26.73;;;13.27;;
35777;SDS011;21899;42.662;23.316;2023-02-12T09:10:39;28.23;;;14.45;;
35777;SDS011;21899;42.662;23.316;2023-02-12T09:13:09;24.95;;;12.88;;
35777;SDS011;21899;42.662;23.316;2023-02-12T09:15:39;26.30;;;14.20;;
35777;SDS011;21899;42.662;23.316;2023-02-12T09:18:06;26.25;;;12.82;;
35777;SDS011;21899;42.662;23.316;2023-02-12T09:20:32;30.10;;;13.40;;
35777;SDS011;21899;42.662;23.316;2023-02-12T09:22:58;28.98;;;14.40;;
35777;SDS011;21899;42.662;23.316;2023-02-12T09:25:24;26.10;;;13.70;;
35777;SDS011;21899;42.662;23.316;2023-02-12T09:27:49;26.50;;;13.27;;
35777;SDS011;21899;42.662;23.316;2023-02-12T09:30:15;25.95;;;13.25;;
35777;SDS011;21899;42.662;23.316;2023-02-12T09:32:40;25.20;;;13.80;;
35777;SDS011;21899;42.662;23.316;2023-02-12T09:35:05;30.45;;;13.98;;
35777;SDS011;21899;42.662;23.316;2023-02-12T09:37:31;28.05;;;14.45;;
35777;SDS011;21899;42.662;23.316;2023-02-12T09:39:56;26.85;;;13.50;;
35777;SDS011;21899;42.662;23.316;2023-02-12T09:50:28;27.77;;;14.02;;
35777;SDS011;21899;42.662;23.316;2023-02-12T09:52:56;26.77;;;14.27;;
35777;SDS011;21899;42.662;23.316;2023-02-12T09:55:24;31.92;;;14.68;;
35777;SDS011;21899;42.662;23.316;2023-02-12T09:57:53;30.55;;;14.90;;
35777;SDS011;21899;42.662;23.316;2023-02-12T10:00:27;29.30;;;14.85;;
35777;SDS011;21899;42.662;23.316;2023-02-12T10:02:55;29.55;;;15.45;;
35777;SDS011;21899;42.662;23.316;2023-02-12T10:05:26;26.58;;;14.52;;
35777;SDS011;21899;42.662;23.316;2023-02-12T10:10:44;28.48;;;14.80;;
35777;SDS011;21899;42.662;23.316;2023-02-12T10:13:25;33.50;;;16.30;;
35777;SDS011;21899;42.662;23.316;2023-02-12T10:16:07;32.80;;;15.77;;
35777;SDS011;21899;42.662;23.316;2023-02-12T10:18:42;28.85;;;15.43;;
35777;SDS011;21899;42.662;23.316;2023-02-12T10:23:53;29.48;;;14.45;;
35777;SDS011;21899;42.662;23.316;2023-02-12T10:26:29;30.02;;;15.63;;
35777;SDS011;21899;42.662;23.316;2023-02-12T10:29:04;34.03;;;16.60;;
35777;SDS011;21899;42.662;23.316;2023-02-12T10:31:46;34.83;;;17.73;;
35777;SDS011;21899;42.662;23.316;2023-02-12T10:34:19;31.42;;;16.10;;
35777;SDS011;21899;42.662;23.316;2023-02-12T10:36:48;36.67;;;16.45;;
35777;SDS011;21899;42.662;23.316;2023-02-12T10:41:59;37.47;;;16.05;;
35777;SDS011;21899;42.662;23.316;2023-02-12T10:44:29;32.53;;;17.35;;
35777;SDS011;21899;42.662;23.316;2023-02-12T10:46:55;32.55;;;16.67;;
35777;SDS011;21899;42.662;23.316;2023-02-12T10:49:20;32.60;;;17.42;;
35777;SDS011;21899;42.662;23.316;2023-02-12T10:54:37;34.40;;;16.20;;
35777;SDS011;21899;42.662;23.316;2023-02-12T10:59:47;33.92;;;16.85;;
35777;SDS011;21899;42.662;23.316;2023-02-12T11:02:27;35.00;;;17.73;;
35777;SDS011;21899;42.662;23.316;2023-02-12T11:04:55;36.85;;;17.60;;
35777;SDS011;21899;42.662;23.316;2023-02-12T11:07:22;32.15;;;16.95;;
35777;SDS011;21899;42.662;23.316;2023-02-12T11:09:49;27.83;;;15.38;;
35777;SDS011;21899;42.662;23.316;2023-02-12T11:14:57;32.47;;;16.52;;
35777;SDS011;21899;42.662;23.316;2023-02-12T11:17:37;28.92;;;15.68;;
35777;SDS011;21899;42.662;23.316;2023-02-12T11:25:25;31.55;;;16.10;;
35777;SDS011;21899;42.662;23.316;2023-02-12T11:30:24;32.92;;;18.55;;
35777;SDS011;21899;42.662;23.316;2023-02-12T11:32:49;32.28;;;17.30;;
35777;SDS011;21899;42.662;23.316;2023-02-12T11:35:20;34.58;;;16.88;;
35777;SDS011;21899;42.662;23.316;2023-02-12T11:37:58;33.30;;;17.13;;
35777;SDS011;21899;42.662;23.316;2023-02-12T11:40:28;34.33;;;18.30;;
35777;SDS011;21899;42.662;23.316;2023-02-12T11:43:02;33.50;;;17.23;;
35777;SDS011;21899;42.662;23.316;2023-02-12T11:45:31;31.52;;;17.00;;
35777;SDS011;21899;42.662;23.316;2023-02-12T11:48:30;30.05;;;16.60;;
35777;SDS011;21899;42.662;23.316;2023-02-12T11:51:01;30.85;;;16.45;;
35777;SDS011;21899;42.662;23.316;2023-02-12T11:56:06;33.58;;;16.95;;
35777;SDS011;21899;42.662;23.316;2023-02-12T11:58:34;32.05;;;16.70;;
35777;SDS011;21899;42.662;23.316;2023-02-12T12:03:57;29.80;;;17.13;;
35777;SDS011;21899;42.662;23.316;2023-02-12T12:07:30;32.90;;;17.23;;
35777;SDS011;21899;42.662;23.316;2023-02-12T12:10:06;29.50;;;16.63;;
35777;SDS011;21899;42.662;23.316;2023-02-12T12:12:42;32.83;;;18.02;;
35777;SDS011;21899;42.662;23.316;2023-02-12T12:15:16;33.58;;;17.67;;
35777;SDS011;21899;42.662;23.316;2023-02-12T12:23:54;37.00;;;18.35;;
35777;SDS011;21899;42.662;23.316;2023-02-12T12:26:35;31.55;;;16.48;;
35777;SDS011;21899;42.662;23.316;2023-02-12T12:31:42;26.80;;;15.00;;
35777;SDS011;21899;42.662;23.316;2023-02-12T12:37:06;35.17;;;17.38;;
35777;SDS011;21899;42.662;23.316;2023-02-12T12:51:00;30.02;;;16.00;;
35777;SDS011;21899;42.662;23.316;2023-02-12T12:53:50;34.92;;;15.63;;
35777;SDS011;21899;42.662;23.316;2023-02-12T12:59:36;31.75;;;16.75;;
35777;SDS011;21899;42.662;23.316;2023-02-12T13:10:11;29.42;;;17.63;;
35777;SDS011;21899;42.662;23.316;2023-02-12T13:24:18;35.95;;;19.33;;
35777;SDS011;21899;42.662;23.316;2023-02-12T13:26:54;28.77;;;15.75;;
35777;SDS011;21899;42.662;23.316;2023-02-12T13:32:02;32.90;;;18.25;;
35777;SDS011;21899;42.662;23.316;2023-02-12T13:34:34;36.20;;;18.52;;
35777;SDS011;21899;42.662;23.316;2023-02-12T13:37:02;39.40;;;19.40;;
35777;SDS011;21899;42.662;23.316;2023-02-12T13:39:37;39.25;;;20.60;;
35777;SDS011;21899;42.662;23.316;2023-02-12T13:47:51;33.78;;;18.27;;
35777;SDS011;21899;42.662;23.316;2023-02-12T13:58:49;37.13;;;19.17;;
35777;SDS011;21899;42.662;23.316;2023-02-12T14:04:21;44.63;;;21.00;;
35777;SDS011;21899;42.662;23.316;2023-02-12T14:06:51;40.38;;;19.70;;
35777;SDS011;21899;42.662;23.316;2023-02-12T14:09:28;36.28;;;19.10;;
35777;SDS011;21899;42.662;23.316;2023-02-12T14:12:06;35.03;;;19.00;;
35777;SDS011;21899;42.662;23.316;2023-02-12T14:14:38;37.00;;;19.48;;
35777;SDS011;21899;42.662;23.316;2023-02-12T14:19:55;36.28;;;18.55;;
35777;SDS011;21899;42.662;23.316;2023-02-12T14:27:45;38.20;;;19.90;;
35777;SDS011;21899;42.662;23.316;2023-02-12T14:35:42;40.88;;;20.75;;
35777;SDS011;21899;42.662;23.316;2023-02-12T14:38:07;35.67;;;18.30;;
35777;SDS011;21899;42.662;23.316;2023-02-12T14:41:00;38.72;;;19.88;;
35777;SDS011;21899;42.662;23.316;2023-02-12T14:46:42;42.70;;;22.52;;
35777;SDS011;21899;42.662;23.316;2023-02-12T14:49:29;37.67;;;19.48;;
35777;SDS011;21899;42.662;23.316;2023-02-12T14:54:41;38.75;;;20.17;;
35777;SDS011;21899;42.662;23.316;2023-02-12T14:57:08;36.78;;;18.90;;
35777;SDS011;21899;42.662;23.316;2023-02-12T14:59:39;39.40;;;20.30;;
35777;SDS011;21899;42.662;23.316;2023-02-12T15:02:08;36.85;;;20.75;;
35777;SDS011;21899;42.662;23.316;2023-02-12T15:04:48;39.25;;;20.08;;
35777;SDS011;21899;42.662;23.316;2023-02-12T15:07:16;37.70;;;20.00;;
35777;SDS011;21899;42.662;23.316;2023-02-12T15:09:54;40.50;;;21.83;;
35777;SDS011;21899;42.662;23.316;2023-02-12T15:12:34;41.50;;;20.67;;
35777;SDS011;21899;42.662;23.316;2023-02-12T15:15:11;36.85;;;19.73;;
35777;SDS011;21899;42.662;23.316;2023-02-12T15:17:58;43.90;;;22.95;;
35777;SDS011;21899;42.662;23.316;2023-02-12T15:20:37;43.55;;;22.38;;
35777;SDS011;21899;42.662;23.316;2023-02-12T15:26:16;39.35;;;21.73;;
35777;SDS011;21899;42.662;23.316;2023-02-12T15:28:46;45.05;;;23.70;;
35777;SDS011;21899;42.662;23.316;2023-02-12T15:31:17;43.17;;;22.92;;
35777;SDS011;21899;42.662;23.316;2023-02-12T15:33:47;40.53;;;21.30;;
35777;SDS011;21899;42.662;23.316;2023-02-12T15:36:16;53.17;;;23.45;;
35777;SDS011;21899;42.662;23.316;2023-02-12T15:38:44;40.67;;;22.10;;
35777;SDS011;21899;42.662;23.316;2023-02-12T15:41:24;39.22;;;22.40;;
35777;SDS011;21899;42.662;23.316;2023-02-12T15:43:52;45.92;;;22.27;;
35777;SDS011;21899;42.662;23.316;2023-02-12T15:46:18;44.55;;;22.77;;
35777;SDS011;21899;42.662;23.316;2023-02-12T15:48:44;57.53;;;23.90;;
35777;SDS011;21899;42.662;23.316;2023-02-12T15:54:07;44.05;;;22.65;;
35777;SDS011;21899;42.662;23.316;2023-02-12T15:56:35;43.05;;;23.50;;
35777;SDS011;21899;42.662;23.316;2023-02-12T15:59:04;48.33;;;24.25;;
35777;SDS011;21899;42.662;23.316;2023-02-12T16:01:31;48.17;;;23.70;;
35777;SDS011;21899;42.662;23.316;2023-02-12T16:03:58;48.30;;;24.02;;
35777;SDS011;21899;42.662;23.316;2023-02-12T16:06:30;47.90;;;25.35;;
35777;SDS011;21899;42.662;23.316;2023-02-12T16:09:08;45.90;;;24.42;;
35777;SDS011;21899;42.662;23.316;2023-02-12T16:11:50;48.83;;;24.77;;
35777;SDS011;21899;42.662;23.316;2023-02-12T16:14:21;49.22;;;25.92;;
35777;SDS011;21899;42.662;23.316;2023-02-12T16:16:49;50.92;;;25.80;;
35777;SDS011;21899;42.662;23.316;2023-02-12T16:19:18;52.20;;;25.50;;
35777;SDS011;21899;42.662;23.316;2023-02-12T16:24:38;48.67;;;25.20;;
35777;SDS011;21899;42.662;23.316;2023-02-12T16:29:43;48.65;;;25.70;;
35777;SDS011;21899;42.662;23.316;2023-02-12T16:32:24;59.30;;;26.35;;
35777;SDS011;21899;42.662;23.316;2023-02-12T16:34:57;54.22;;;26.83;;
35777;SDS011;21899;42.662;23.316;2023-02-12T16:47:52;59.83;;;27.52;;
35777;SDS011;21899;42.662;23.316;2023-02-12T16:50:20;60.33;;;27.55;;
35777;SDS011;21899;42.662;23.316;2023-02-12T16:52:49;54.05;;;28.02;;
35777;SDS011;21899;42.662;23.316;2023-02-12T16:55:31;61.35;;;30.50;;
35777;SDS011;21899;42.662;23.316;2023-02-12T16:57:56;57.60;;;29.63;;
35777;SDS011;21899;42.662;23.316;2023-02-12T17:00:22;59.33;;;30.00;;
35777;SDS011;21899;42.662;23.316;2023-02-12T17:02:48;63.45;;;31.17;;
35777;SDS011;21899;42.662;23.316;2023-02-12T17:05:14;62.15;;;31.20;;
35777;SDS011;21899;42.662;23.316;2023-02-12T17:07:42;59.55;;;31.13;;
35777;SDS011;21899;42.662;23.316;2023-02-12T17:10:11;68.63;;;33.50;;
35777;SDS011;21899;42.662;23.316;2023-02-12T17:12:50;64.35;;;32.88;;
35777;SDS011;21899;42.662;23.316;2023-02-12T17:15:21;66.22;;;32.42;;
35777;SDS011;21899;42.662;23.316;2023-02-12T17:17:49;74.80;;;34.72;;
35777;SDS011;21899;42.662;23.316;2023-02-12T17:20:15;77.32;;;38.10;;
35777;SDS011;21899;42.662;23.316;2023-02-12T17:22:43;75.75;;;36.97;;
35777;SDS011;21899;42.662;23.316;2023-02-12T17:25:14;68.40;;;36.95;;
35777;SDS011;21899;42.662;23.316;2023-02-12T17:27:40;71.72;;;34.25;;
35777;SDS011;21899;42.662;23.316;2023-02-12T17:30:06;69.55;;;33.15;;
35777;SDS011;21899;42.662;23.316;2023-02-12T17:32:32;68.53;;;33.75;;
35777;SDS011;21899;42.662;23.316;2023-02-12T17:34:57;73.10;;;34.30;;
35777;SDS011;21899;42.662;23.316;2023-02-12T17:37:22;73.85;;;35.22;;
35777;SDS011;21899;42.662;23.316;2023-02-12T17:39:49;75.53;;;35.47;;
35777;SDS011;21899;42.662;23.316;2023-02-12T17:42:15;81.85;;;39.92;;
35777;SDS011;21899;42.662;23.316;2023-02-12T17:44:40;90.03;;;40.85;;